createdAt,value
2023-03-07T00:04:53.812Z,1.25
2023-03-07T00:10:15.919Z,1.92
2023-03-07T00:15:39.143Z,2.50
2023-03-07T00:21:03.483Z,0.30
2023-03-07T00:26:27.813Z,0.93
2023-03-07T00:31:49.823Z,1.20
2023-03-07T00:37:11.519Z,2.03
2023-03-07T00:42:33.243Z,1.00
2023-03-07T00:47:56.350Z,0.93
2023-03-07T00:53:19.404Z,2.05
2023-03-07T00:58:41.419Z,1.08
2023-03-07T01:04:03.594Z,1.80
2023-03-07T01:09:25.382Z,1.55
2023-03-07T01:14:51.180Z,0.30
2023-03-07T01:20:13.230Z,0.50
2023-03-07T01:25:42.158Z,0.43
2023-03-07T01:31:03.940Z,0.73
2023-03-07T01:36:31.192Z,1.05
2023-03-07T01:41:52.996Z,1.60
2023-03-07T01:47:14.659Z,1.45
2023-03-07T01:52:39.992Z,0.38
2023-03-07T01:58:08.986Z,1.13
2023-03-07T02:03:37.545Z,1.02
2023-03-07T02:09:00.813Z,1.60
2023-03-07T02:14:22.826Z,1.15
2023-03-07T02:20:08.691Z,0.43
2023-03-07T02:25:41.196Z,0.57
2023-03-07T02:31:07.087Z,0.50
2023-03-07T02:36:32.701Z,1.02
2023-03-07T02:47:17.199Z,0.82
2023-03-07T02:52:39.454Z,0.88
2023-03-07T02:58:01.300Z,0.82
2023-03-07T03:03:23.221Z,0.60
2023-03-07T03:08:45.029Z,0.93
2023-03-07T03:14:06.933Z,0.82
2023-03-07T03:19:29.969Z,0.47
2023-03-07T03:24:51.922Z,1.13
2023-03-07T03:30:14.437Z,0.85
2023-03-07T03:35:36.145Z,0.93
2023-03-07T03:40:57.870Z,1.65
2023-03-07T03:46:20.579Z,1.45
2023-03-07T03:51:42.670Z,0.63
2023-03-07T03:57:04.433Z,0.90
2023-03-07T04:02:26.889Z,2.47
2023-03-07T04:07:50.564Z,0.50
2023-03-07T04:13:13.769Z,1.07
2023-03-07T04:18:36.370Z,0.70
2023-03-07T04:23:58.632Z,1.30
2023-03-07T04:29:20.420Z,1.02
2023-03-07T04:34:42.119Z,1.10
2023-03-07T04:40:04.180Z,0.40
2023-03-07T04:45:26.236Z,1.58
2023-03-07T04:50:52.043Z,1.23
2023-03-07T04:56:16.422Z,1.75
2023-03-07T05:01:38.173Z,1.52
2023-03-07T05:06:59.985Z,1.70
2023-03-07T05:12:22.511Z,0.60
2023-03-07T05:17:44.241Z,1.15
2023-03-07T05:23:05.935Z,1.35
2023-03-07T05:28:27.693Z,0.70
2023-03-07T05:33:49.364Z,1.33
2023-03-07T05:39:11.214Z,1.30
2023-03-07T05:44:34.153Z,1.25
2023-03-07T05:49:56.314Z,1.98
2023-03-07T05:55:18.613Z,2.05
2023-03-07T06:00:40.402Z,2.42
2023-03-07T06:06:02.143Z,1.13
2023-03-07T06:11:23.916Z,1.48
2023-03-07T06:16:45.611Z,1.30
2023-03-07T06:22:09.037Z,6.47
2023-03-07T06:27:37.803Z,5.32
2023-03-07T06:32:59.623Z,7.15
2023-03-07T06:38:21.339Z,10.30
2023-03-07T06:43:43.108Z,6.38
2023-03-07T06:49:04.898Z,3.05
2023-03-07T06:54:26.670Z,11.48
2023-03-07T06:59:48.372Z,4.53
2023-03-07T07:05:10.069Z,11.40
2023-03-07T07:10:31.827Z,10.18
2023-03-07T07:15:53.692Z,6.18
2023-03-07T07:21:15.491Z,5.63
2023-03-07T07:26:37.444Z,12.05
2023-03-07T07:32:00.283Z,4.38
2023-03-07T07:37:22.176Z,5.15
2023-03-07T07:42:43.866Z,2.13
2023-03-07T07:48:05.824Z,1.80
2023-03-07T07:53:27.602Z,3.33
2023-03-07T07:58:49.368Z,3.03
2023-03-07T08:04:11.428Z,2.83
2023-03-07T08:09:33.243Z,6.38
2023-03-07T08:14:54.947Z,3.60
2023-03-07T08:20:16.971Z,10.70
2023-03-07T08:25:39.029Z,12.75
2023-03-07T08:31:08.414Z,4.57
2023-03-07T08:36:30.229Z,7.20
2023-03-07T08:41:52.148Z,4.75
2023-03-07T08:47:13.905Z,4.47
2023-03-07T08:52:35.560Z,10.15
2023-03-07T08:57:57.418Z,7.82
2023-03-07T09:03:19.125Z,3.60
2023-03-07T09:08:44.329Z,2.43
2023-03-07T09:14:06.181Z,15.77
2023-03-07T09:19:27.969Z,14.80
2023-03-07T09:24:49.625Z,10.70
2023-03-07T09:30:12.911Z,8.40
2023-03-07T09:35:34.670Z,14.73
2023-03-07T09:41:04.929Z,12.20
2023-03-07T09:46:42.625Z,16.77
2023-03-07T09:52:14.259Z,16.75
2023-03-07T09:57:57.379Z,14.25
2023-03-07T10:03:41.691Z,10.35
2023-03-07T10:09:05.573Z,7.50
2023-03-07T10:14:39.215Z,9.57
2023-03-07T10:20:24.889Z,21.90
2023-03-07T10:25:56.971Z,11.03
2023-03-07T10:31:39.552Z,13.02
2023-03-07T10:37:10.942Z,9.50
2023-03-07T10:42:36.969Z,11.40
2023-03-07T10:48:08.763Z,9.45
2023-03-07T10:53:35.169Z,11.52
2023-03-07T10:59:06.210Z,5.68
2023-03-07T11:04:30.682Z,4.35
2023-03-07T11:09:52.369Z,6.35
2023-03-07T11:15:23.717Z,11.43
2023-03-07T11:20:50.067Z,9.07
2023-03-07T11:26:21.820Z,2.58
2023-03-07T11:31:56.296Z,8.75
2023-03-07T11:37:29.799Z,6.70
2023-03-07T11:43:16.671Z,6.80
2023-03-07T11:48:50.642Z,1.80
2023-03-07T11:54:37.076Z,5.35
2023-03-07T12:00:28.164Z,3.47
2023-03-07T12:06:14.799Z,0.95
2023-03-07T12:17:15.823Z,1.92
2023-03-07T12:22:49.578Z,4.75
2023-03-07T12:28:21.338Z,6.70
2023-03-07T12:34:14.252Z,7.47
2023-03-07T12:39:41.582Z,3.90
2023-03-07T12:45:21.731Z,10.23
2023-03-07T12:50:52.196Z,1.85
2023-03-07T12:56:31.453Z,13.50
2023-03-07T13:02:01.661Z,23.77
2023-03-07T13:07:33.969Z,13.32
2023-03-07T13:12:55.684Z,43.20
2023-03-07T13:18:30.170Z,110.32
2023-03-07T13:24:31.823Z,120.50
2023-03-07T13:30:20.702Z,82.05
2023-03-07T13:35:48.206Z,66.10
2023-03-07T13:41:12.089Z,51.72
2023-03-07T13:46:42.761Z,51.22
2023-03-07T13:52:33.490Z,38.65
2023-03-07T13:57:57.129Z,30.38
2023-03-07T14:03:27.999Z,42.05
2023-03-07T14:08:51.224Z,46.17
2023-03-07T14:14:35.267Z,38.22
2023-03-07T14:20:28.116Z,35.53
2023-03-07T14:25:54.698Z,40.78
2023-03-07T14:31:30.393Z,32.03
2023-03-07T14:37:00.884Z,24.65
2023-03-07T14:42:32.447Z,25.95
2023-03-07T14:48:24.067Z,20.52
2023-03-07T14:53:46.252Z,13.60
2023-03-07T14:59:12.450Z,14.50
2023-03-07T15:04:41.432Z,9.00
2023-03-07T15:10:03.190Z,9.63
2023-03-07T15:15:25.301Z,7.78
2023-03-07T15:20:48.141Z,8.45
2023-03-07T15:26:21.336Z,4.95
2023-03-07T15:31:51.491Z,3.70
2023-03-07T15:37:27.174Z,6.32
2023-03-07T15:42:56.452Z,5.00
2023-03-07T15:48:34.536Z,3.55
2023-03-07T15:54:01.184Z,2.83
2023-03-07T15:59:28.453Z,2.53
2023-03-07T16:04:50.143Z,1.67
2023-03-07T16:10:11.890Z,2.55
2023-03-07T16:15:33.605Z,1.52
2023-03-07T16:20:55.317Z,2.28
2023-03-07T16:26:22.804Z,1.33
2023-03-07T16:31:44.979Z,3.80
2023-03-07T16:37:07.276Z,1.98
2023-03-07T16:42:28.939Z,9.15
2023-03-07T16:47:58.605Z,5.50
2023-03-07T16:53:20.327Z,3.60
2023-03-07T16:58:44.296Z,1.23
2023-03-07T17:04:06.169Z,1.95
2023-03-07T17:09:28.104Z,1.25
2023-03-07T17:14:50.015Z,1.17
2023-03-07T17:20:18.257Z,2.42
2023-03-07T17:25:40.269Z,3.33
2023-03-07T17:31:02.062Z,1.00
2023-03-07T17:36:23.980Z,1.08
2023-03-07T17:41:46.047Z,0.63
2023-03-07T17:47:07.860Z,0.50
2023-03-07T17:52:29.911Z,2.63
2023-03-07T17:57:52.403Z,2.45
2023-03-07T18:03:14.107Z,1.85
2023-03-07T18:08:37.311Z,0.90
2023-03-07T18:13:59.122Z,1.70
2023-03-07T18:19:26.781Z,2.33
2023-03-07T18:24:53.603Z,1.80
2023-03-07T18:30:16.131Z,1.25
2023-03-07T18:35:38.081Z,25.15
2023-03-07T18:41:05.599Z,12.77
2023-03-07T18:46:31.812Z,14.77
2023-03-07T18:51:53.499Z,12.02
2023-03-07T18:57:15.576Z,6.03
2023-03-07T19:02:38.985Z,6.20
2023-03-07T19:08:00.653Z,6.55
2023-03-07T19:13:22.440Z,7.95
2023-03-07T19:18:44.728Z,6.95
2023-03-07T19:24:08.089Z,17.70
2023-03-07T19:29:29.905Z,18.15
2023-03-07T19:34:51.637Z,17.23
2023-03-07T19:40:13.853Z,22.40
2023-03-07T19:45:40.601Z,27.00
2023-03-07T19:51:03.012Z,21.48
2023-03-07T19:56:31.916Z,28.02
2023-03-07T20:01:53.653Z,16.30
2023-03-07T20:07:16.016Z,11.15
2023-03-07T20:12:37.747Z,11.38
2023-03-07T20:17:59.604Z,9.10
2023-03-07T20:23:21.463Z,9.68
2023-03-07T20:28:43.456Z,5.28
2023-03-07T20:34:05.485Z,6.95
2023-03-07T20:39:27.208Z,9.18
2023-03-07T20:44:48.932Z,11.70
2023-03-07T20:50:11.213Z,5.32
2023-03-07T20:55:33.667Z,6.38
2023-03-07T21:00:55.981Z,8.20
2023-03-07T21:06:18.585Z,15.18
2023-03-07T21:11:45.137Z,10.05
2023-03-07T21:17:06.980Z,14.10
2023-03-07T21:22:28.683Z,7.88
2023-03-07T21:27:50.402Z,10.65
2023-03-07T21:33:12.185Z,8.98
2023-03-07T21:38:34.669Z,13.38
2023-03-07T21:43:57.622Z,7.03
2023-03-07T21:49:19.422Z,10.48
2023-03-07T21:54:41.795Z,8.60
2023-03-07T22:00:06.850Z,7.78
2023-03-07T22:05:28.572Z,9.15
2023-03-07T22:10:59.459Z,6.32
2023-03-07T22:16:22.233Z,6.75
2023-03-07T22:21:44.020Z,3.47
2023-03-07T22:27:07.348Z,2.30
2023-03-07T22:32:29.084Z,3.33
2023-03-07T22:37:50.839Z,2.38
2023-03-07T22:43:12.528Z,2.53
2023-03-07T22:48:34.724Z,4.15
2023-03-07T22:53:56.506Z,1.73
2023-03-07T22:59:18.376Z,2.05
2023-03-07T23:04:40.254Z,4.78
2023-03-07T23:10:02.080Z,5.35
2023-03-07T23:15:24.817Z,3.20
2023-03-07T23:20:46.544Z,3.15
2023-03-07T23:26:08.529Z,1.20
2023-03-07T23:31:36.468Z,1.42
2023-03-07T23:36:58.217Z,3.92
2023-03-07T23:42:20.297Z,1.40
2023-03-07T23:47:42.048Z,0.70
2023-03-07T23:53:03.958Z,0.88
2023-03-07T23:58:25.651Z,0.90
